Time;durP1;ratioP1;P1;durP2;ratioP2;P2;SDS_P1;SDS_P2;PMS_P1;PMS_P2;Temp;Humidity;BMP_temperature;BMP_pressure;BME280_temperature;BME280_humidity;BME280_pressure;Samples;Min_cycle;Max_cycle;Signal;HPM_P1;HPM_P2
2023/01/12 00:01:25;;;;;;;7.28;1.58;;;8.70;99.90;;;;;;5051701;28;20116;-77
2023/01/12 00:03:52;;;;;;;9.90;2.00;;;8.80;99.90;;;;;;5052687;28;20041;-77
2023/01/12 00:06:18;;;;;;;12.68;2.10;;;8.80;99.90;;;;;;5067987;28;20040;-77
2023/01/12 00:08:45;;;;;;;8.93;2.22;;;8.80;99.90;;;;;;5049741;28;20120;-77
2023/01/12 00:11:10;;;;;;;9.65;1.65;;;8.90;99.90;;;;;;5052305;28;20033;-77
2023/01/12 00:13:36;;;;;;;9.55;1.90;;;8.90;99.90;;;;;;5049689;28;20055;-77
2023/01/12 00:18:48;;;;;;;9.93;2.15;;;9.10;99.90;;;;;;5045527;28;20045;-77
2023/01/12 00:21:16;;;;;;;14.45;2.13;;;9.00;99.90;;;;;;5038955;28;20033;-77
2023/01/12 00:23:43;;;;;;;14.00;2.63;;;9.00;99.90;;;;;;5056312;28;20477;-77
2023/01/12 00:26:09;;;;;;;9.02;1.70;;;9.00;99.90;;;;;;5053925;28;20122;-76
2023/01/12 00:28:36;;;;;;;12.48;2.58;;;9.10;99.90;;;;;;5055524;28;20128;-77
2023/01/12 00:31:06;;;;;;;9.45;1.83;;;9.00;99.90;;;;;;5048715;28;20059;-77
2023/01/12 00:33:33;;;;;;;15.32;2.28;;;9.10;99.90;;;;;;5052897;28;20037;-77
2023/01/12 00:36:05;;;;;;;16.25;2.40;;;9.00;99.90;;;;;;5052275;28;20037;-77
2023/01/12 00:38:32;;;;;;;7.77;1.80;;;9.00;99.90;;;;;;5048524;28;20033;-77
2023/01/12 00:41:06;;;;;;;9.70;2.30;;;8.90;99.90;;;;;;5048666;28;20052;-77
2023/01/12 00:46:16;;;;;;;11.98;2.75;;;8.90;99.90;;;;;;5053477;28;20041;-77
2023/01/12 00:48:42;;;;;;;8.77;2.05;;;8.90;99.90;;;;;;5047907;28;20140;-77
2023/01/12 00:51:08;;;;;;;9.95;1.80;;;9.00;99.90;;;;;;5048789;28;20102;-77
2023/01/12 00:53:33;;;;;;;15.38;2.97;;;9.00;99.90;;;;;;5052418;28;20408;-77
2023/01/12 00:56:03;;;;;;;17.00;2.40;;;9.00;99.90;;;;;;5046641;28;20086;-77
2023/01/12 00:58:29;;;;;;;13.63;2.00;;;8.90;99.90;;;;;;5044334;28;20041;-77
2023/01/12 01:01:05;;;;;;;16.90;2.53;;;8.90;99.90;;;;;;5048985;28;20047;-78
2023/01/12 01:03:31;;;;;;;13.90;2.50;;;8.80;99.90;;;;;;5054647;28;20465;-77
2023/01/12 01:06:06;;;;;;;14.35;2.97;;;8.80;99.90;;;;;;5055414;28;20068;-78
2023/01/12 01:08:36;;;;;;;13.60;2.90;;;8.80;99.90;;;;;;5054920;28;20075;-77
2023/01/12 01:11:07;;;;;;;17.20;2.97;;;8.90;99.90;;;;;;5055249;28;20082;-77
2023/01/12 01:13:35;;;;;;;6.05;1.70;;;8.90;99.90;;;;;;5054641;28;20048;-77
2023/01/12 01:16:03;;;;;;;11.30;1.90;;;9.00;99.90;;;;;;5054696;28;20037;-78
2023/01/12 01:18:29;;;;;;;10.23;1.85;;;9.10;99.90;;;;;;5046189;28;20056;-78
2023/01/12 01:20:55;;;;;;;10.52;1.75;;;9.10;99.90;;;;;;5039396;28;20093;-78
2023/01/12 01:23:22;;;;;;;18.13;2.55;;;9.10;99.90;;;;;;5055551;28;20037;-78
2023/01/12 01:25:48;;;;;;;13.75;2.20;;;9.00;99.90;;;;;;5054683;28;20050;-78
2023/01/12 01:28:14;;;;;;;11.95;1.67;;;9.00;99.90;;;;;;5055418;28;20041;-78
2023/01/12 01:30:40;;;;;;;6.60;1.83;;;9.00;99.90;;;;;;5053518;28;20405;-78
2023/01/12 01:33:05;;;;;;;9.07;2.22;;;9.00;99.90;;;;;;5055783;28;20043;-78
2023/01/12 01:35:31;;;;;;;12.48;2.10;;;9.10;99.90;;;;;;5053599;28;20049;-78
2023/01/12 01:37:56;;;;;;;12.65;1.92;;;9.10;99.90;;;;;;5054060;28;20053;-79
2023/01/12 01:40:22;;;;;;;9.48;1.63;;;9.20;99.90;;;;;;5054610;28;20052;-78
2023/01/12 01:42:48;;;;;;;12.68;2.03;;;9.10;99.90;;;;;;5054774;28;20123;-78
2023/01/12 01:45:15;;;;;;;8.32;1.50;;;9.10;99.90;;;;;;5055794;28;20045;-79
2023/01/12 01:47:59;;;;;;;10.52;1.90;;;9.10;99.90;;;;;;5054522;28;20037;-79
2023/01/12 01:50:38;;;;;;;13.88;1.88;;;9.10;99.90;;;;;;5054543;28;20049;-79
2023/01/12 01:53:10;;;;;;;14.00;2.60;;;9.10;99.90;;;;;;5054199;28;20378;-79
2023/01/12 01:55:39;;;;;;;10.82;1.52;;;9.10;99.90;;;;;;5054594;28;20048;-79
2023/01/12 01:58:12;;;;;;;15.45;2.35;;;9.10;99.90;;;;;;5055273;28;20076;-79
2023/01/12 02:00:39;;;;;;;15.98;2.25;;;9.10;99.90;;;;;;5054316;28;20120;-79
2023/01/12 02:03:06;;;;;;;12.18;2.00;;;9.00;99.90;;;;;;5054403;28;20057;-79
2023/01/12 02:05:32;;;;;;;16.60;3.20;;;9.10;99.90;;;;;;5036192;28;20077;-78
2023/01/12 02:08:06;;;;;;;13.85;2.40;;;9.10;99.90;;;;;;5036126;28;20525;-78
2023/01/12 02:10:32;;;;;;;13.15;3.20;;;9.00;99.90;;;;;;5054169;28;20041;-78
2023/01/12 02:16:21;;;;;;;12.77;2.13;;;9.10;99.90;;;;;;5054866;28;20045;-79
2023/01/12 02:19:33;;;;;;;20.08;2.85;;;9.20;99.90;;;;;;5054870;28;20071;-79
2023/01/12 02:22:17;;;;;;;9.90;2.10;;;9.10;99.90;;;;;;5052094;28;20055;-79
2023/01/12 02:25:19;;;;;;;10.48;2.70;;;9.10;99.90;;;;;;5054109;28;20040;-79
2023/01/12 02:28:00;;;;;;;9.88;2.17;;;9.20;99.90;;;;;;5054365;28;20083;-79
2023/01/12 02:30:46;;;;;;;11.43;2.10;;;9.20;99.90;;;;;;5053653;28;20574;-78
2023/01/12 02:33:49;;;;;;;15.10;2.55;;;9.20;99.90;;;;;;5039863;28;20445;-78
2023/01/12 02:36:36;;;;;;;12.25;2.75;;;9.20;99.90;;;;;;5035980;28;20068;-78
2023/01/12 02:39:28;;;;;;;8.13;2.05;;;9.10;99.90;;;;;;5053667;28;20129;-78
2023/01/12 02:45:34;;;;;;;15.38;2.85;;;9.20;99.90;;;;;;5047387;28;20045;-78
2023/01/12 02:48:25;;;;;;;12.45;2.88;;;9.20;99.90;;;;;;5053736;28;20394;-78
2023/01/12 02:51:05;;;;;;;9.38;1.98;;;9.20;99.90;;;;;;5051906;28;20036;-78
2023/01/12 02:53:43;;;;;;;10.07;1.42;;;9.20;99.90;;;;;;5053779;28;20044;-77
2023/01/12 02:56:12;;;;;;;13.07;2.30;;;9.20;99.90;;;;;;5053122;28;20104;-77
2023/01/12 02:58:42;;;;;;;11.85;2.13;;;9.10;99.90;;;;;;5053952;28;20068;-77
2023/01/12 03:01:10;;;;;;;12.93;1.83;;;9.10;99.90;;;;;;5044907;28;20037;-78
2023/01/12 03:03:38;;;;;;;13.18;2.90;;;9.10;99.90;;;;;;5033163;28;20058;-78
2023/01/12 03:06:06;;;;;;;11.65;2.38;;;9.10;99.90;;;;;;5021957;28;20037;-78
2023/01/12 03:08:34;;;;;;;16.33;2.95;;;9.10;99.90;;;;;;5032923;28;20033;-78
2023/01/12 03:11:19;;;;;;;9.77;2.40;;;9.20;99.90;;;;;;5038896;28;20493;-78
2023/01/12 03:13:51;;;;;;;13.50;2.50;;;9.10;99.90;;;;;;5052972;28;20044;-78
2023/01/12 03:16:21;;;;;;;17.25;2.80;;;9.10;99.90;;;;;;5048118;28;20056;-78
2023/01/12 03:18:53;;;;;;;13.80;1.98;;;9.10;99.90;;;;;;5031651;28;20058;-78
2023/01/12 03:21:41;;;;;;;11.20;2.58;;;9.20;99.90;;;;;;5042092;28;20040;-78
2023/01/12 03:24:21;;;;;;;11.43;1.98;;;9.30;99.90;;;;;;5046087;28;20144;-78
2023/01/12 03:26:49;;;;;;;9.10;2.10;;;9.30;99.90;;;;;;5042908;28;20108;-76
2023/01/12 03:29:28;;;;;;;10.98;2.63;;;9.30;99.90;;;;;;5052609;28;20041;-77
2023/01/12 03:31:55;;;;;;;11.50;1.95;;;9.30;99.90;;;;;;5035731;28;20128;-76
2023/01/12 03:34:21;;;;;;;7.93;1.48;;;9.30;99.90;;;;;;5032853;28;20041;-76
2023/01/12 03:36:53;;;;;;;7.20;1.70;;;9.30;99.90;;;;;;5043395;28;20497;-76
2023/01/12 03:39:38;;;;;;;10.25;3.33;;;9.40;99.90;;;;;;5051126;28;20402;-77
2023/01/12 03:42:09;;;;;;;5.32;1.08;;;9.40;99.90;;;;;;5032574;28;20085;-77
2023/01/12 03:44:44;;;;;;;7.68;2.28;;;9.40;99.90;;;;;;5032838;28;20397;-77
2023/01/12 03:47:32;;;;;;;6.95;1.60;;;9.40;99.90;;;;;;5028614;28;20029;-77
2023/01/12 03:50:29;;;;;;;6.85;1.58;;;9.40;99.90;;;;;;5050177;28;20393;-77
2023/01/12 03:52:56;;;;;;;10.98;1.88;;;9.40;99.90;;;;;;5035103;28;20581;-77
2023/01/12 03:55:23;;;;;;;7.50;1.67;;;9.50;99.90;;;;;;5052329;28;20159;-77
2023/01/12 03:57:51;;;;;;;7.22;1.42;;;9.40;99.90;;;;;;5051839;28;20504;-77
2023/01/12 04:00:19;;;;;;;6.97;1.75;;;9.40;99.90;;;;;;5051251;28;20037;-77
2023/01/12 04:02:45;;;;;;;5.78;1.50;;;9.40;99.90;;;;;;4997866;28;1058532;-76
2023/01/12 04:05:13;;;;;;;9.88;2.03;;;9.40;99.90;;;;;;5035458;28;20393;-76
2023/01/12 04:07:39;;;;;;;5.88;1.17;;;9.40;99.90;;;;;;5052128;28;20541;-77
2023/01/12 04:10:05;;;;;;;11.60;2.05;;;9.40;99.90;;;;;;5035022;28;20106;-76
2023/01/12 04:12:31;;;;;;;6.30;1.48;;;9.40;99.90;;;;;;5052976;28;20116;-76
2023/01/12 04:14:57;;;;;;;8.43;1.70;;;9.40;99.90;;;;;;5052901;28;20112;-76
2023/01/12 04:17:24;;;;;;;9.57;1.73;;;9.40;99.90;;;;;;5036338;28;20057;-76
2023/01/12 04:19:50;;;;;;;6.97;1.40;;;9.40;99.90;;;;;;5015227;28;20496;-76
2023/01/12 04:25:01;;;;;;;9.18;1.88;;;9.40;99.90;;;;;;5052758;28;20045;-77
2023/01/12 04:27:27;;;;;;;6.28;1.50;;;9.40;99.90;;;;;;5051553;28;20040;-76
2023/01/12 04:29:53;;;;;;;6.38;1.27;;;9.40;99.90;;;;;;5042993;28;20106;-77
2023/01/12 04:32:19;;;;;;;7.45;1.48;;;9.40;99.90;;;;;;5049793;28;20040;-77
2023/01/12 04:34:45;;;;;;;7.50;1.70;;;9.40;99.90;;;;;;5045066;28;20041;-77
2023/01/12 04:37:11;;;;;;;8.48;1.83;;;9.30;99.90;;;;;;5048273;28;20557;-77
2023/01/12 04:39:36;;;;;;;2.47;1.10;;;9.40;99.90;;;;;;5048558;28;20124;-78
2023/01/12 04:42:02;;;;;;;4.95;0.90;;;9.40;99.90;;;;;;5050869;28;20073;-77
2023/01/12 04:44:28;;;;;;;7.25;1.08;;;9.40;99.90;;;;;;5045707;28;20436;-78
2023/01/12 04:46:53;;;;;;;4.05;1.25;;;9.40;99.90;;;;;;5048435;28;20036;-78
2023/01/12 04:49:19;;;;;;;3.25;0.68;;;9.40;99.90;;;;;;5040287;28;20040;-78
2023/01/12 04:51:45;;;;;;;3.05;0.80;;;9.50;99.90;;;;;;5049585;28;20041;-78
2023/01/12 04:54:11;;;;;;;3.30;0.90;;;9.40;99.90;;;;;;5049290;28;20041;-78
2023/01/12 04:56:36;;;;;;;4.63;1.20;;;9.40;99.90;;;;;;5045946;28;20079;-78
2023/01/12 04:59:02;;;;;;;1.08;0.70;;;9.40;99.90;;;;;;5050481;28;20072;-78
2023/01/12 05:01:28;;;;;;;5.95;1.30;;;9.40;99.90;;;;;;5050731;28;20033;-79
2023/01/12 05:03:56;;;;;;;3.22;0.82;;;9.30;99.90;;;;;;5054506;28;20145;-78
2023/01/12 05:06:23;;;;;;;6.38;0.95;;;9.30;99.90;;;;;;5045711;28;20040;-79
2023/01/12 05:11:32;;;;;;;4.13;1.17;;;9.30;99.90;;;;;;5050321;28;20049;-79
2023/01/12 05:13:59;;;;;;;5.97;1.40;;;9.30;99.90;;;;;;5050984;28;20083;-79
2023/01/12 05:16:26;;;;;;;3.65;1.02;;;9.30;99.90;;;;;;5051603;28;20049;-79
2023/01/12 05:18:52;;;;;;;4.97;1.05;;;9.30;99.90;;;;;;5053882;28;20505;-79
2023/01/12 05:21:20;;;;;;;6.72;1.48;;;9.30;99.90;;;;;;5049401;28;20037;-79
2023/01/12 05:23:47;;;;;;;5.65;1.30;;;9.30;99.90;;;;;;5054354;28;20091;-80
2023/01/12 05:26:12;;;;;;;5.75;1.73;;;9.30;99.90;;;;;;5055025;28;20405;-79
2023/01/12 05:28:38;;;;;;;4.07;1.15;;;9.20;99.90;;;;;;5050916;28;20037;-79
2023/01/12 05:31:13;;;;;;;3.95;1.08;;;9.20;99.90;;;;;;5053551;28;20040;-80
2023/01/12 05:33:39;;;;;;;3.47;1.17;;;9.20;99.90;;;;;;5052724;28;20052;-79
2023/01/12 05:36:07;;;;;;;1.13;0.60;;;9.20;99.90;;;;;;5052221;28;20489;-79
2023/01/12 05:38:33;;;;;;;2.20;0.73;;;9.20;99.90;;;;;;5054387;28;20383;-79
2023/01/12 05:41:00;;;;;;;8.60;1.10;;;9.20;99.90;;;;;;5054466;28;20052;-79
2023/01/12 05:46:14;;;;;;;3.10;0.65;;;9.20;99.90;;;;;;5054610;28;20105;-79
2023/01/12 05:48:40;;;;;;;2.08;0.60;;;9.10;99.90;;;;;;5053683;28;20040;-78
2023/01/12 05:51:07;;;;;;;2.67;1.00;;;9.20;99.90;;;;;;5053180;28;20489;-80
2023/01/12 05:53:33;;;;;;;2.30;0.73;;;9.20;99.90;;;;;;5055936;28;20049;-81
2023/01/12 05:56:06;;;;;;;3.45;0.85;;;9.20;99.90;;;;;;5036011;28;20386;-80
2023/01/12 05:58:31;;;;;;;2.05;0.55;;;9.10;99.90;;;;;;5054620;28;20037;-81
2023/01/12 06:00:57;;;;;;;2.90;1.08;;;9.10;99.90;;;;;;5054043;28;20591;-81
2023/01/12 06:03:22;;;;;;;0.80;0.40;;;9.20;99.90;;;;;;5053543;28;20057;-80
2023/01/12 06:05:53;;;;;;;1.70;0.70;;;9.20;99.90;;;;;;5052292;28;20033;-80
2023/01/12 06:08:19;;;;;;;2.10;0.60;;;9.20;99.90;;;;;;5052889;28;20382;-81
2023/01/12 06:10:44;;;;;;;1.25;0.68;;;9.20;99.90;;;;;;5069411;28;20052;-80
2023/01/12 06:16:02;;;;;;;1.10;0.57;;;9.20;99.90;;;;;;5047250;28;20045;-80
2023/01/12 06:18:27;;;;;;;1.23;0.63;;;9.20;99.90;;;;;;5052671;28;20032;-79
2023/01/12 06:20:57;;;;;;;2.75;0.65;;;9.20;99.90;;;;;;5052933;28;20028;-79
2023/01/12 06:23:23;;;;;;;3.60;0.52;;;9.20;99.90;;;;;;5052702;28;20095;-79
2023/01/12 06:25:48;;;;;;;2.20;0.65;;;9.20;99.90;;;;;;5052559;28;20041;-79
2023/01/12 06:28:15;;;;;;;1.15;0.50;;;9.30;99.90;;;;;;5051577;28;20108;-78
2023/01/12 06:30:40;;;;;;;2.08;0.52;;;9.30;99.90;;;;;;5052206;28;20037;-78
2023/01/12 06:33:06;;;;;;;1.75;0.20;;;9.30;99.90;;;;;;5050483;28;20074;-78
2023/01/12 06:35:31;;;;;;;1.90;0.55;;;9.30;99.90;;;;;;5051534;28;20040;-77
2023/01/12 06:37:57;;;;;;;0.45;0.40;;;9.30;99.90;;;;;;5048052;28;20116;-78
2023/01/12 06:40:23;;;;;;;0.85;0.28;;;9.30;99.90;;;;;;5032130;28;20123;-78
2023/01/12 06:42:48;;;;;;;0.65;0.43;;;9.40;99.90;;;;;;5051696;28;20045;-78
2023/01/12 06:45:14;;;;;;;1.98;0.80;;;9.40;99.90;;;;;;5052829;28;20064;-78
2023/01/12 06:47:48;;;;;;;1.35;0.30;;;9.40;99.90;;;;;;5052612;28;20037;-77
2023/01/12 06:50:13;;;;;;;3.15;0.60;;;9.40;99.90;;;;;;5040474;28;20492;-78
2023/01/12 06:52:39;;;;;;;2.28;0.50;;;9.40;99.90;;;;;;5047604;28;20084;-77
2023/01/12 06:55:05;;;;;;;1.20;0.47;;;9.50;99.90;;;;;;5052916;28;20045;-78
2023/01/12 06:57:31;;;;;;;0.57;0.30;;;9.50;99.90;;;;;;5051916;28;20041;-78
2023/01/12 06:59:56;;;;;;;0.30;0.30;;;9.60;99.90;;;;;;5040770;28;20033;-78
2023/01/12 07:02:22;;;;;;;1.10;0.57;;;9.60;99.90;;;;;;5036051;28;20047;-78
2023/01/12 07:04:47;;;;;;;0.95;0.57;;;9.60;99.90;;;;;;5036591;28;20041;-77
2023/01/12 07:07:13;;;;;;;1.40;0.47;;;9.60;99.90;;;;;;5044476;28;20393;-77
2023/01/12 07:09:39;;;;;;;0.43;0.28;;;9.60;99.90;;;;;;5052290;28;20063;-78
2023/01/12 07:12:04;;;;;;;0.57;0.38;;;9.60;99.90;;;;;;5049115;28;20048;-77
2023/01/12 07:14:30;;;;;;;0.95;0.30;;;9.60;99.90;;;;;;5047591;28;20043;-78
2023/01/12 07:16:56;;;;;;;1.08;0.50;;;9.60;99.90;;;;;;5050589;28;20076;-78
2023/01/12 07:19:21;;;;;;;0.50;0.50;;;9.60;99.90;;;;;;5040813;28;20025;-78
2023/01/12 07:21:51;;;;;;;0.45;0.22;;;9.60;99.90;;;;;;5052563;28;20430;-78
2023/01/12 07:24:16;;;;;;;0.32;0.32;;;9.70;99.90;;;;;;5043160;28;20087;-78
2023/01/12 07:26:43;;;;;;;1.25;0.50;;;9.70;99.90;;;;;;5051251;28;20037;-79
2023/01/12 07:29:10;;;;;;;1.33;0.63;;;9.70;99.90;;;;;;5046628;28;20064;-78
2023/01/12 07:31:36;;;;;;;0.55;0.40;;;9.70;99.90;;;;;;5067887;28;20067;-78
2023/01/12 07:34:01;;;;;;;0.22;0.22;;;9.80;99.90;;;;;;5031208;28;20041;-78
2023/01/12 07:36:27;;;;;;;0.20;0.20;;;9.80;99.90;;;;;;5050015;28;20493;-78
2023/01/12 07:38:52;;;;;;;0.30;0.20;;;9.80;99.90;;;;;;5052613;28;20041;-78
2023/01/12 07:44:02;;;;;;;1.08;0.28;;;9.90;99.90;;;;;;5052904;28;20053;-79
2023/01/12 07:46:28;;;;;;;0.93;0.73;;;9.90;99.90;;;;;;5049725;28;20115;-78
2023/01/12 07:48:53;;;;;;;0.90;0.50;;;9.90;99.90;;;;;;5050750;28;20033;-77
2023/01/12 07:51:19;;;;;;;3.05;0.73;;;9.90;99.90;;;;;;5050052;28;20037;-78
2023/01/12 07:53:47;;;;;;;3.92;0.63;;;10.00;99.90;;;;;;5045909;28;20036;-79
2023/01/12 07:56:14;;;;;;;2.38;0.85;;;10.00;99.90;;;;;;5036129;28;20037;-78
2023/01/12 07:58:48;;;;;;;2.53;0.68;;;9.90;99.90;;;;;;5067372;28;20086;-79
2023/01/12 08:01:14;;;;;;;3.00;0.93;;;10.00;99.90;;;;;;5043080;28;20063;-78
2023/01/12 08:03:39;;;;;;;2.90;1.08;;;10.00;99.90;;;;;;5051456;28;20053;-78
2023/01/12 08:06:06;;;;;;;4.50;1.00;;;10.00;99.90;;;;;;5026058;28;20060;-78
2023/01/12 08:08:32;;;;;;;6.95;1.17;;;10.00;99.90;;;;;;5052901;28;20038;-78
2023/01/12 08:11:05;;;;;;;5.22;1.10;;;10.10;99.90;;;;;;5051655;28;20044;-78
2023/01/12 08:13:31;;;;;;;7.18;1.42;;;10.20;99.90;;;;;;5049860;28;20485;-77
2023/01/12 08:16:05;;;;;;;8.40;2.08;;;10.10;99.90;;;;;;5049013;28;20052;-77
2023/01/12 08:18:36;;;;;;;11.98;1.85;;;10.20;99.90;;;;;;5045441;28;20049;-77
2023/01/12 08:21:06;;;;;;;11.67;2.00;;;10.20;99.90;;;;;;5049776;28;20386;-69
2023/01/12 08:23:38;;;;;;;10.23;2.17;;;10.40;99.90;;;;;;5044719;28;20045;-69
2023/01/12 08:26:09;;;;;;;9.57;1.77;;;10.40;99.90;;;;;;5054226;28;20041;-77
2023/01/12 08:28:43;;;;;;;11.90;2.37;;;10.50;99.90;;;;;;5051739;28;20076;-80
2023/01/12 08:31:13;;;;;;;11.30;2.03;;;10.60;99.90;;;;;;5051374;28;20041;-76
2023/01/12 08:33:39;;;;;;;11.95;2.42;;;10.70;99.90;;;;;;5030951;28;20045;-76
2023/01/12 08:36:09;;;;;;;24.08;4.88;;;10.60;99.90;;;;;;5050782;28;20441;-76
2023/01/12 08:38:34;;;;;;;11.38;2.53;;;10.60;99.90;;;;;;5051377;28;20032;-77
2023/01/12 08:44:03;;;;;;;7.28;2.15;;;10.70;99.90;;;;;;5055710;28;20504;-77
2023/01/12 08:46:34;;;;;;;17.60;2.38;;;10.80;99.90;;;;;;5056550;28;20044;-76
2023/01/12 08:49:01;;;;;;;13.43;2.38;;;10.80;99.90;;;;;;5055006;28;20041;-76
2023/01/12 08:51:27;;;;;;;13.90;3.15;;;10.80;99.90;;;;;;5054621;28;20040;-76
2023/01/12 08:53:53;;;;;;;16.42;2.60;;;10.80;99.90;;;;;;5056112;28;20111;-76
2023/01/12 08:56:18;;;;;;;16.85;3.13;;;10.80;99.90;;;;;;5032103;28;20613;-77
2023/01/12 08:58:44;;;;;;;11.63;1.90;;;10.90;99.90;;;;;;5035263;28;20049;-76
2023/01/12 09:01:12;;;;;;;9.15;2.00;;;11.00;99.90;;;;;;5038332;28;20051;-77
2023/01/12 09:03:39;;;;;;;11.10;2.30;;;11.00;99.90;;;;;;5054896;28;20417;-77
2023/01/12 09:06:13;;;;;;;10.80;2.55;;;11.00;99.90;;;;;;5043397;28;20124;-77
2023/01/12 09:08:39;;;;;;;13.98;2.38;;;11.00;99.90;;;;;;5034888;28;20398;-77
2023/01/12 09:11:05;;;;;;;12.68;2.83;;;11.10;99.90;;;;;;5055116;28;20033;-77
2023/01/12 09:13:33;;;;;;;19.95;2.88;;;11.20;99.90;;;;;;5046535;28;20037;-77
2023/01/12 09:16:03;;;;;;;11.88;2.22;;;11.10;99.90;;;;;;5055142;28;20488;-78
2023/01/12 09:18:29;;;;;;;11.15;2.40;;;11.10;99.90;;;;;;5071187;28;20045;-78
2023/01/12 09:21:09;;;;;;;17.48;2.55;;;11.10;99.90;;;;;;5049478;28;20404;-78
2023/01/12 09:23:35;;;;;;;15.13;2.70;;;11.10;99.90;;;;;;5051514;28;20045;-77
2023/01/12 09:26:08;;;;;;;14.05;2.40;;;11.00;99.90;;;;;;5055469;28;20091;-77
2023/01/12 09:28:34;;;;;;;11.68;3.55;;;11.10;99.90;;;;;;5046789;28;20042;-77
2023/01/12 09:31:01;;;;;;;9.77;2.22;;;11.10;99.90;;;;;;5053108;28;20124;-76
2023/01/12 09:33:28;;;;;;;12.23;2.90;;;11.10;99.90;;;;;;5039228;28;20489;-77
2023/01/12 09:36:08;;;;;;;8.98;2.00;;;11.20;99.90;;;;;;5024922;28;20042;-77
2023/01/12 09:38:36;;;;;;;13.18;2.50;;;11.20;99.90;;;;;;5050612;28;20172;-77
2023/01/12 09:41:14;;;;;;;12.93;2.22;;;11.30;99.90;;;;;;5037459;28;20045;-77
2023/01/12 09:49:27;;;;;;;12.80;2.40;;;11.30;99.90;;;;;;5045405;28;20033;-76
2023/01/12 09:52:11;;;;;;;11.13;1.83;;;11.40;99.90;;;;;;5055280;28;20033;-76
2023/01/12 09:54:37;;;;;;;17.10;3.70;;;11.40;99.90;;;;;;5028847;28;20385;-76
2023/01/12 09:57:24;;;;;;;12.98;1.88;;;11.40;99.90;;;;;;5052328;28;20029;-76
2023/01/12 09:59:58;;;;;;;12.23;1.90;;;11.40;99.90;;;;;;5055242;28;20446;-76
2023/01/12 10:02:24;;;;;;;15.80;2.47;;;11.40;99.90;;;;;;5050860;28;20041;-76
2023/01/12 10:04:52;;;;;;;9.27;2.08;;;11.40;99.90;;;;;;5045178;28;20409;-76
2023/01/12 10:07:18;;;;;;;9.63;2.20;;;11.40;99.90;;;;;;5055307;28;20033;-75
2023/01/12 10:09:44;;;;;;;17.60;2.65;;;11.40;99.90;;;;;;5047558;28;20079;-76
2023/01/12 10:12:29;;;;;;;16.75;3.35;;;11.30;99.90;;;;;;5044537;28;20034;-75
2023/01/12 10:15:36;;;;;;;13.20;3.17;;;11.40;99.90;;;;;;5047870;28;20102;-76
2023/01/12 10:18:10;;;;;;;12.98;2.47;;;11.30;99.90;;;;;;5052898;28;20052;-76
2023/01/12 10:20:42;;;;;;;7.28;1.70;;;11.40;99.90;;;;;;5054936;28;20067;-77
2023/01/12 10:23:07;;;;;;;17.80;2.90;;;11.50;99.90;;;;;;5054480;28;20041;-76
2023/01/12 10:25:53;;;;;;;12.93;2.40;;;11.40;99.90;;;;;;5054435;28;20052;-76
2023/01/12 10:28:29;;;;;;;18.67;3.05;;;11.50;99.90;;;;;;5052218;28;20494;-76
2023/01/12 10:30:56;;;;;;;16.55;2.40;;;11.40;99.90;;;;;;5054542;28;20041;-76
2023/01/12 10:33:26;;;;;;;11.27;2.75;;;11.50;99.90;;;;;;5053258;28;20080;-76
2023/01/12 10:36:09;;;;;;;14.77;2.88;;;11.50;99.90;;;;;;5054309;28;20045;-76
2023/01/12 10:38:38;;;;;;;10.85;1.90;;;11.60;99.90;;;;;;5054485;28;20052;-76
2023/01/12 10:41:09;;;;;;;8.85;1.58;;;11.60;99.90;;;;;;5036470;28;20045;-75
2023/01/12 10:43:36;;;;;;;10.50;2.20;;;11.60;99.90;;;;;;5050830;28;20040;-76
2023/01/12 10:46:12;;;;;;;17.42;3.00;;;11.60;99.90;;;;;;5053946;28;20032;-76
2023/01/12 10:48:42;;;;;;;15.15;2.30;;;11.60;99.90;;;;;;5054081;28;20497;-76
2023/01/12 10:51:20;;;;;;;11.27;1.65;;;11.60;99.90;;;;;;5054266;28;20041;-75
2023/01/12 10:53:57;;;;;;;14.82;2.30;;;11.60;99.90;;;;;;5052701;28;20615;-76
2023/01/12 10:56:52;;;;;;;16.70;2.95;;;11.60;99.90;;;;;;5053970;28;20519;-76
2023/01/12 10:59:20;;;;;;;14.82;2.03;;;11.60;99.90;;;;;;5049243;28;20501;-76
2023/01/12 11:02:02;;;;;;;15.52;2.83;;;11.60;99.90;;;;;;5050913;28;20036;-76
2023/01/12 11:04:28;;;;;;;12.98;2.63;;;11.60;99.90;;;;;;5053593;28;20049;-76
2023/01/12 11:07:07;;;;;;;13.63;2.65;;;11.60;99.90;;;;;;5053965;28;20063;-76
2023/01/12 11:09:33;;;;;;;11.05;2.22;;;11.60;99.90;;;;;;5035745;28;20124;-76
2023/01/12 11:12:01;;;;;;;14.63;2.15;;;11.60;99.90;;;;;;5053700;28;20120;-76
2023/01/12 11:14:37;;;;;;;13.65;2.33;;;11.60;99.90;;;;;;5053615;28;20040;-76
2023/01/12 11:17:25;;;;;;;13.65;2.35;;;11.70;99.90;;;;;;5053727;28;20044;-76
2023/01/12 11:19:52;;;;;;;10.85;2.13;;;11.70;99.90;;;;;;5046754;28;20060;-76
2023/01/12 11:22:29;;;;;;;13.75;2.28;;;11.70;99.90;;;;;;5053365;28;20139;-76
2023/01/12 11:25:03;;;;;;;11.50;2.40;;;11.80;99.90;;;;;;5053574;28;20049;-76
2023/01/12 11:27:36;;;;;;;8.88;1.70;;;11.70;99.90;;;;;;5052181;28;20512;-76
2023/01/12 11:30:14;;;;;;;11.38;2.38;;;11.90;99.90;;;;;;5053395;28;20041;-76
2023/01/12 11:32:49;;;;;;;12.40;2.30;;;11.80;99.90;;;;;;5053471;28;20037;-76
2023/01/12 11:35:36;;;;;;;17.05;3.17;;;11.80;99.90;;;;;;5051019;28;20072;-76
2023/01/12 11:38:16;;;;;;;14.10;2.88;;;11.80;99.90;;;;;;5053621;28;20099;-76
2023/01/12 11:40:43;;;;;;;12.25;2.97;;;11.80;99.90;;;;;;5053293;28;20424;-77
2023/01/12 11:43:51;;;;;;;14.25;2.08;;;11.80;99.90;;;;;;5053110;28;20059;-77
2023/01/12 11:46:28;;;;;;;11.30;1.70;;;11.70;99.90;;;;;;5053266;28;20044;-76
2023/01/12 11:49:26;;;;;;;16.45;2.80;;;11.80;99.90;;;;;;5052134;28;20131;-77
2023/01/12 11:51:57;;;;;;;15.73;2.45;;;11.90;99.90;;;;;;5050849;28;20449;-77
2023/01/12 11:54:25;;;;;;;10.98;1.70;;;11.90;99.90;;;;;;5053064;28;20044;-76
2023/01/12 11:57:18;;;;;;;12.50;2.58;;;12.00;99.90;;;;;;5053163;28;20520;-77
2023/01/12 11:59:49;;;;;;;14.35;2.70;;;11.90;99.90;;;;;;5053364;28;20047;-77
2023/01/12 12:02:33;;;;;;;13.53;2.10;;;11.90;99.90;;;;;;5051929;28;20482;-77
2023/01/12 12:05:32;;;;;;;15.43;3.15;;;12.00;99.90;;;;;;5052186;28;20501;-77
2023/01/12 12:08:12;;;;;;;9.10;1.52;;;11.90;99.90;;;;;;5050918;28;20041;-77
2023/01/12 12:11:02;;;;;;;13.75;2.10;;;11.90;99.90;;;;;;5033223;28;20057;-77
2023/01/12 12:13:33;;;;;;;14.65;2.17;;;11.90;99.90;;;;;;5034295;28;20045;-76
2023/01/12 12:16:17;;;;;;;10.15;2.92;;;11.80;99.90;;;;;;5037030;28;20490;-77
2023/01/12 12:18:54;;;;;;;10.65;2.13;;;11.80;99.90;;;;;;5053968;28;20033;-77
2023/01/12 12:21:29;;;;;;;16.02;2.22;;;11.80;99.90;;;;;;5055686;28;20070;-77
2023/01/12 12:24:21;;;;;;;14.68;2.85;;;11.80;99.90;;;;;;5055497;28;20045;-77
2023/01/12 12:27:08;;;;;;;14.85;2.50;;;11.90;99.90;;;;;;5054564;28;20044;-77
2023/01/12 12:29:55;;;;;;;14.60;2.58;;;11.80;99.90;;;;;;5036480;28;20088;-75
2023/01/12 12:32:46;;;;;;;12.15;2.45;;;11.80;99.90;;;;;;5038799;28;20076;-76
2023/01/12 12:35:23;;;;;;;12.15;2.08;;;11.90;99.90;;;;;;5054872;28;20036;-76
2023/01/12 12:38:00;;;;;;;11.02;1.85;;;11.90;99.90;;;;;;5055892;28;20124;-75
2023/01/12 12:46:47;;;;;;;12.05;2.50;;;11.70;99.90;;;;;;5052683;28;20449;-76
2023/01/12 12:49:18;;;;;;;12.07;1.73;;;11.70;99.90;;;;;;5054564;28;20520;-76
2023/01/12 12:51:45;;;;;;;13.45;2.33;;;11.70;99.90;;;;;;5047261;28;20121;-75
2023/01/12 12:54:21;;;;;;;13.02;2.67;;;11.80;99.90;;;;;;5056370;28;20430;-76
2023/01/12 12:56:48;;;;;;;14.73;2.58;;;11.70;99.90;;;;;;5055718;28;20098;-76
2023/01/12 12:59:56;;;;;;;9.02;1.77;;;11.80;99.90;;;;;;5054240;28;20104;-76
2023/01/12 13:02:53;;;;;;;13.13;2.25;;;11.90;99.90;;;;;;5039469;28;20052;-76
2023/01/12 13:05:44;;;;;;;12.52;2.22;;;11.80;99.90;;;;;;5054514;28;20126;-75
2023/01/12 13:08:22;;;;;;;7.95;1.80;;;11.80;99.90;;;;;;5056024;28;20040;-76
2023/01/12 13:10:56;;;;;;;6.05;1.88;;;11.90;99.90;;;;;;5055232;28;20099;-74
2023/01/12 13:13:28;;;;;;;4.28;1.15;;;11.80;99.90;;;;;;5055984;28;20060;-75
2023/01/12 13:16:13;;;;;;;12.20;2.15;;;11.90;99.90;;;;;;5055066;28;20037;-75
2023/01/12 13:18:48;;;;;;;13.52;2.42;;;11.90;99.90;;;;;;5052208;28;20036;-75
2023/01/12 13:21:40;;;;;;;14.20;2.85;;;11.80;99.90;;;;;;5049989;28;20555;-75
2023/01/12 13:24:08;;;;;;;18.27;2.92;;;11.70;99.90;;;;;;5044092;28;20413;-75
2023/01/12 13:26:34;;;;;;;15.30;3.28;;;11.70;99.90;;;;;;5055388;28;20049;-75
2023/01/12 13:29:21;;;;;;;16.42;3.17;;;11.60;99.90;;;;;;5052075;28;20048;-75
2023/01/12 13:31:47;;;;;;;14.75;2.47;;;11.70;99.90;;;;;;5055671;28;20041;-75
2023/01/12 13:34:28;;;;;;;17.27;3.05;;;11.70;99.90;;;;;;5055503;28;20040;-75
2023/01/12 13:37:39;;;;;;;17.45;3.35;;;11.80;99.90;;;;;;5036760;28;20056;-75
2023/01/12 13:40:21;;;;;;;17.55;3.42;;;11.80;99.90;;;;;;5024971;28;20080;-76
2023/01/12 13:45:34;;;;;;;15.70;3.40;;;11.70;99.90;;;;;;5051690;28;20049;-75
2023/01/12 13:48:01;;;;;;;11.18;2.45;;;11.70;99.90;;;;;;5054190;28;20040;-75
2023/01/12 13:50:28;;;;;;;12.57;2.55;;;11.80;99.90;;;;;;5042286;28;20512;-75
2023/01/12 13:52:59;;;;;;;13.38;3.08;;;11.90;99.90;;;;;;5046702;28;20048;-75
2023/01/12 13:55:30;;;;;;;14.20;3.13;;;11.90;99.90;;;;;;5049311;28;20079;-75